Time;durP1;ratioP1;P1;durP2;ratioP2;P2;SDS_P1;SDS_P2;PMS_P1;PMS_P2;Temp;Humidity;BMP_temperature;BMP_pressure;BME280_temperature;BME280_humidity;BME280_pressure;Samples;Min_cycle;Max_cycle;Signal;HPM_P1;HPM_P2
2022/06/21 00:00:40;;;;;;;42.70;40.53;;;;;;;;;;5052958;28;20029;-63
2022/06/21 00:03:10;;;;;;;33.22;31.48;;;;;;;;;;5051813;28;20355;-63
2022/06/21 00:05:39;;;;;;;20.13;19.02;;;;;;;;;;5051517;28;20040;-63
2022/06/21 00:08:11;;;;;;;19.65;18.55;;;;;;;;;;5053019;28;20111;-62
2022/06/21 00:10:37;;;;;;;26.52;25.13;;;;;;;;;;5052172;28;20039;-63
2022/06/21 00:13:07;;;;;;;36.60;34.70;;;;;;;;;;5055508;28;20028;-62
2022/06/21 00:15:32;;;;;;;30.80;29.20;;;;;;;;;;5053358;28;20029;-63
2022/06/21 00:17:57;;;;;;;31.65;30.00;;;;;;;;;;5053178;28;20091;-62
2022/06/21 00:20:25;;;;;;;52.90;50.20;;;;;;;;;;5054826;28;20033;-62
2022/06/21 00:22:50;;;;;;;38.63;36.60;;;;;;;;;;5053259;28;20068;-62
2022/06/21 00:25:22;;;;;;;28.63;27.13;;;;;;;;;;5055675;28;20061;-62
2022/06/21 00:27:47;;;;;;;26.30;24.90;;;;;;;;;;5054499;28;20579;-62
2022/06/21 00:30:14;;;;;;;35.92;34.03;;;;;;;;;;5055645;28;20025;-63
2022/06/21 00:32:40;;;;;;;23.48;22.20;;;;;;;;;;5051082;28;20698;-63
2022/06/21 00:35:11;;;;;;;31.35;29.70;;;;;;;;;;5055279;28;20044;-63
2022/06/21 00:37:37;;;;;;;19.33;18.25;;;;;;;;;;5055971;28;20108;-63
2022/06/21 00:40:15;;;;;;;19.33;18.23;;;;;;;;;;5057282;28;20036;-63
2022/06/21 00:42:44;;;;;;;17.77;16.77;;;;;;;;;;5054756;28;20025;-62
2022/06/21 00:45:20;;;;;;;17.10;16.10;;;;;;;;;;5052137;28;20040;-62
2022/06/21 00:47:52;;;;;;;18.23;17.23;;;;;;;;;;5054419;28;20044;-62
2022/06/21 00:50:45;;;;;;;14.60;13.80;;;;;;;;;;5053767;28;20085;-62
2022/06/21 00:53:17;;;;;;;15.23;14.32;;;;;;;;;;5051070;28;20048;-62
2022/06/21 00:55:42;;;;;;;18.05;17.05;;;;;;;;;;5055014;28;20029;-62
2022/06/21 00:58:11;;;;;;;11.52;10.82;;;;;;;;;;5053168;28;20044;-62
2022/06/21 01:00:39;;;;;;;12.15;11.45;;;;;;;;;;5054948;28;20039;-62
2022/06/21 01:03:14;;;;;;;13.50;12.70;;;;;;;;;;5054474;28;20025;-62
2022/06/21 01:05:43;;;;;;;12.55;11.65;;;;;;;;;;5053902;28;20037;-62
2022/06/21 01:08:12;;;;;;;12.35;11.65;;;;;;;;;;5052541;28;20054;-62
2022/06/21 01:10:39;;;;;;;15.38;14.48;;;;;;;;;;5052358;28;20123;-62
2022/06/21 01:13:14;;;;;;;11.60;10.90;;;;;;;;;;5057524;28;20147;-61
2022/06/21 01:15:47;;;;;;;11.15;10.45;;;;;;;;;;5059629;28;20520;-62
2022/06/21 01:18:15;;;;;;;10.88;10.20;;;;;;;;;;5054652;28;20036;-63
2022/06/21 01:20:44;;;;;;;12.15;11.20;;;;;;;;;;5054549;28;20037;-62
2022/06/21 01:23:34;;;;;;;11.38;10.68;;;;;;;;;;5057173;28;20041;-62
2022/06/21 01:26:18;;;;;;;12.45;11.52;;;;;;;;;;5060375;28;20040;-62
2022/06/21 01:28:44;;;;;;;12.05;11.35;;;;;;;;;;5053526;28;20044;-62
2022/06/21 01:31:10;;;;;;;12.40;11.68;;;;;;;;;;5054485;28;20088;-62
2022/06/21 01:33:40;;;;;;;13.15;12.35;;;;;;;;;;5059112;28;20049;-62
2022/06/21 01:36:11;;;;;;;13.40;12.60;;;;;;;;;;5058044;28;20035;-62
2022/06/21 01:38:50;;;;;;;13.18;12.38;;;;;;;;;;5057019;28;20025;-62
2022/06/21 01:41:23;;;;;;;14.00;13.20;;;;;;;;;;5060405;28;20024;-62
2022/06/21 01:43:52;;;;;;;12.93;12.18;;;;;;;;;;5055282;28;20075;-62
2022/06/21 01:46:23;;;;;;;12.45;11.75;;;;;;;;;;5054818;28;20098;-62
2022/06/21 01:48:51;;;;;;;17.60;16.60;;;;;;;;;;5057822;28;20045;-62
2022/06/21 01:51:22;;;;;;;16.02;15.13;;;;;;;;;;5053956;28;20540;-62
2022/06/21 01:53:48;;;;;;;14.05;13.25;;;;;;;;;;5056049;28;20041;-61
2022/06/21 01:56:17;;;;;;;13.77;12.80;;;;;;;;;;5065282;28;20162;-62
2022/06/21 01:58:50;;;;;;;13.80;12.98;;;;;;;;;;5058376;28;20097;-62
2022/06/21 02:01:23;;;;;;;12.38;11.68;;;;;;;;;;5053924;28;20041;-62
2022/06/21 02:03:54;;;;;;;12.95;12.15;;;;;;;;;;5059002;28;20115;-62
2022/06/21 02:06:21;;;;;;;15.57;14.65;;;;;;;;;;5055267;28;20345;-62
2022/06/21 02:08:57;;;;;;;14.55;13.52;;;;;;;;;;5055490;28;20397;-62
2022/06/21 02:11:30;;;;;;;14.30;13.50;;;;;;;;;;5054353;28;20110;-62
2022/06/21 02:16:49;;;;;;;14.25;13.35;;;;;;;;;;5057184;28;20043;-62
2022/06/21 02:19:32;;;;;;;16.98;15.98;;;;;;;;;;5057157;28;20075;-62
2022/06/21 02:21:57;;;;;;;13.82;13.02;;;;;;;;;;5052541;28;20347;-62
2022/06/21 02:24:25;;;;;;;14.75;13.85;;;;;;;;;;5056380;28;20043;-62
2022/06/21 02:26:51;;;;;;;19.00;18.00;;;;;;;;;;5058975;28;20028;-62
2022/06/21 02:29:17;;;;;;;13.05;12.25;;;;;;;;;;5056738;28;20050;-62
2022/06/21 02:31:44;;;;;;;13.95;13.15;;;;;;;;;;5054167;28;20041;-62
2022/06/21 02:34:22;;;;;;;13.35;12.55;;;;;;;;;;5055366;28;20351;-62
2022/06/21 02:36:55;;;;;;;15.98;15.07;;;;;;;;;;5056312;28;20040;-62
2022/06/21 02:39:23;;;;;;;13.85;13.05;;;;;;;;;;5055208;28;20356;-63
2022/06/21 02:42:01;;;;;;;16.02;15.13;;;;;;;;;;5056124;28;20028;-62
2022/06/21 02:44:38;;;;;;;14.35;13.55;;;;;;;;;;5055093;28;20059;-64
2022/06/21 02:47:16;;;;;;;15.20;14.30;;;;;;;;;;5057121;28;20040;-62
2022/06/21 02:49:52;;;;;;;13.32;12.52;;;;;;;;;;5057604;28;20032;-62
2022/06/21 02:52:22;;;;;;;16.60;15.70;;;;;;;;;;5057839;28;20047;-63
2022/06/21 02:55:14;;;;;;;18.20;17.20;;;;;;;;;;5054062;28;20033;-63
2022/06/21 02:57:41;;;;;;;;;;;;;;;;;;5050437;28;20040;-62
2022/06/21 03:00:15;;;;;;;14.82;14.00;;;;;;;;;;5058193;28;19912;-62
2022/06/21 03:02:40;;;;;;;22.58;21.27;;;;;;;;;;5055427;28;20025;-62
2022/06/21 03:05:13;;;;;;;19.15;18.10;;;;;;;;;;5054017;28;20037;-62
2022/06/21 03:07:46;;;;;;;17.02;16.08;;;;;;;;;;5044878;28;20366;-62
2022/06/21 03:10:22;;;;;;;23.95;22.65;;;;;;;;;;5058766;28;20086;-62
2022/06/21 03:12:50;;;;;;;20.38;19.27;;;;;;;;;;5055047;28;20063;-63
2022/06/21 03:15:16;;;;;;;19.92;18.83;;;;;;;;;;5055061;28;20055;-63
2022/06/21 03:17:51;;;;;;;17.05;16.05;;;;;;;;;;5053437;28;20045;-65
2022/06/21 03:20:19;;;;;;;19.17;18.13;;;;;;;;;;5055831;28;20033;-65
2022/06/21 03:22:46;;;;;;;19.30;18.20;;;;;;;;;;5056894;28;20040;-65
2022/06/21 03:25:25;;;;;;;18.05;17.05;;;;;;;;;;5057443;28;20390;-64
2022/06/21 03:27:56;;;;;;;17.40;16.40;;;;;;;;;;5053723;28;20025;-65
2022/06/21 03:30:27;;;;;;;17.60;16.60;;;;;;;;;;5053276;28;20029;-64
2022/06/21 03:32:55;;;;;;;16.55;15.65;;;;;;;;;;5053516;28;20170;-64
2022/06/21 03:35:22;;;;;;;17.23;16.27;;;;;;;;;;5056519;28;20041;-64
2022/06/21 03:37:48;;;;;;;17.02;16.05;;;;;;;;;;5054652;28;20035;-64
2022/06/21 03:43:14;;;;;;;22.67;21.48;;;;;;;;;;5056108;28;20036;-62
2022/06/21 03:45:40;;;;;;;21.27;19.88;;;;;;;;;;5057269;28;20047;-62
2022/06/21 03:48:13;;;;;;;18.35;17.15;;;;;;;;;;5055688;28;20029;-62
2022/06/21 03:50:46;;;;;;;24.88;23.38;;;;;;;;;;5052460;28;20032;-64
2022/06/21 03:53:28;;;;;;;25.45;20.83;;;;;;;;;;5037640;28;20195;-64
2022/06/21 03:56:26;;;;;;;25.52;24.13;;;;;;;;;;5050784;28;20118;-64
2022/06/21 03:59:18;;;;;;;26.15;24.75;;;;;;;;;;5054457;28;20037;-64
2022/06/21 04:02:05;;;;;;;25.02;23.67;;;;;;;;;;5054784;28;20086;-64
2022/06/21 04:04:50;;;;;;;21.42;20.25;;;;;;;;;;5051396;28;20036;-63
2022/06/21 04:07:31;;;;;;;20.27;19.17;;;;;;;;;;5054448;28;20044;-64
2022/06/21 04:10:12;;;;;;;21.75;20.55;;;;;;;;;;5055303;28;20466;-64
2022/06/21 04:12:46;;;;;;;17.10;16.10;;;;;;;;;;5055603;28;20489;-65
2022/06/21 04:15:20;;;;;;;21.70;20.50;;;;;;;;;;5053763;28;20649;-66
2022/06/21 04:18:11;;;;;;;18.73;17.73;;;;;;;;;;5054336;28;20024;-66
2022/06/21 04:21:00;;;;;;;22.13;20.92;;;;;;;;;;5054740;28;20362;-63
2022/06/21 04:23:36;;;;;;;17.38;16.35;;;;;;;;;;5055568;28;20425;-63
2022/06/21 04:26:17;;;;;;;19.20;18.10;;;;;;;;;;5053982;28;20028;-62
2022/06/21 04:28:50;;;;;;;18.52;17.48;;;;;;;;;;5055219;28;20119;-62
2022/06/21 04:31:25;;;;;;;18.65;17.58;;;;;;;;;;5054761;28;20115;-63
2022/06/21 04:33:56;;;;;;;26.48;25.05;;;;;;;;;;5057319;28;20097;-63
2022/06/21 04:36:27;;;;;;;26.08;24.63;;;;;;;;;;5056454;28;20032;-62
2022/06/21 04:39:19;;;;;;;25.30;23.95;;;;;;;;;;5054420;28;20040;-63
2022/06/21 04:41:57;;;;;;;29.05;27.48;;;;;;;;;;5054860;28;20028;-63
2022/06/21 04:44:35;;;;;;;32.92;31.15;;;;;;;;;;5054382;28;20063;-63
2022/06/21 04:47:12;;;;;;;33.38;31.63;;;;;;;;;;5056133;28;20040;-63
2022/06/21 04:49:52;;;;;;;34.35;32.55;;;;;;;;;;5058082;28;20028;-64
2022/06/21 04:52:27;;;;;;;37.03;35.13;;;;;;;;;;5059085;28;20063;-62
2022/06/21 04:54:52;;;;;;;37.60;35.65;;;;;;;;;;5064202;28;20040;-62
2022/06/21 04:57:24;;;;;;;35.42;33.47;;;;;;;;;;5058788;28;20036;-63
2022/06/21 04:59:56;;;;;;;35.08;33.25;;;;;;;;;;5057220;28;20036;-63
2022/06/21 05:02:36;;;;;;;32.20;30.52;;;;;;;;;;5056849;28;20391;-63
2022/06/21 05:05:10;;;;;;;39.17;37.13;;;;;;;;;;5057147;28;20017;-62
2022/06/21 05:07:44;;;;;;;41.67;39.53;;;;;;;;;;5062037;28;20035;-63
2022/06/21 05:10:16;;;;;;;39.25;37.22;;;;;;;;;;5059037;28;20036;-61
2022/06/21 05:12:43;;;;;;;26.10;24.60;;;;;;;;;;5057923;28;20071;-62
2022/06/21 05:15:26;;;;;;;26.33;24.60;;;;;;;;;;5056191;28;20040;-63
2022/06/21 05:17:57;;;;;;;22.05;20.85;;;;;;;;;;5059440;28;20090;-63
2022/06/21 05:20:26;;;;;;;21.92;20.67;;;;;;;;;;5057503;28;20029;-63
2022/06/21 05:22:56;;;;;;;19.60;18.40;;;;;;;;;;5059474;28;20128;-63
2022/06/21 05:25:23;;;;;;;22.52;21.33;;;;;;;;;;5058898;28;20028;-62
2022/06/21 05:27:58;;;;;;;23.60;22.30;;;;;;;;;;5057501;28;20028;-63
2022/06/21 05:30:36;;;;;;;32.20;30.50;;;;;;;;;;5058517;28;20032;-63
2022/06/21 05:33:06;;;;;;;38.75;36.75;;;;;;;;;;5057334;28;20439;-63
2022/06/21 05:35:36;;;;;;;32.17;30.48;;;;;;;;;;5055586;28;20067;-63
2022/06/21 05:38:11;;;;;;;32.58;30.88;;;;;;;;;;5057002;28;20139;-63
2022/06/21 05:40:56;;;;;;;43.13;40.88;;;;;;;;;;5057988;28;20025;-64
2022/06/21 05:43:45;;;;;;;45.75;43.40;;;;;;;;;;5063568;28;20457;-64
2022/06/21 05:46:18;;;;;;;19.05;18.00;;;;;;;;;;5054642;28;20462;-63
2022/06/21 05:48:44;;;;;;;49.78;47.17;;;;;;;;;;5056180;28;20087;-63
2022/06/21 05:51:25;;;;;;;25.85;24.33;;;;;;;;;;5056491;28;20036;-63
2022/06/21 05:53:55;;;;;;;42.95;40.72;;;;;;;;;;5057741;28;20029;-63
2022/06/21 05:56:23;;;;;;;25.60;24.25;;;;;;;;;;5056198;28;20094;-63
2022/06/21 05:58:55;;;;;;;31.42;29.80;;;;;;;;;;5058128;28;20041;-63
2022/06/21 06:01:41;;;;;;;30.10;28.45;;;;;;;;;;5055526;28;20371;-64
2022/06/21 06:04:42;;;;;;;55.17;52.33;;;;;;;;;;5055957;28;20025;-63
2022/06/21 06:07:23;;;;;;;34.83;33.00;;;;;;;;;;5015008;28;20080;-63
2022/06/21 06:09:54;;;;;;;16.83;15.82;;;;;;;;;;5056937;28;20032;-63
2022/06/21 06:12:27;;;;;;;26.27;24.85;;;;;;;;;;5055415;28;20040;-63
2022/06/21 06:15:03;;;;;;;43.75;41.53;;;;;;;;;;5056199;28;20508;-63
2022/06/21 06:17:41;;;;;;;21.08;19.92;;;;;;;;;;5055321;28;20029;-64
2022/06/21 06:20:31;;;;;;;23.00;21.75;;;;;;;;;;5056376;28;20035;-62
2022/06/21 06:22:58;;;;;;;38.55;36.55;;;;;;;;;;5056721;28;20045;-63
2022/06/21 06:25:45;;;;;;;19.15;18.10;;;;;;;;;;5056232;28;20069;-62
2022/06/21 06:28:24;;;;;;;25.25;23.88;;;;;;;;;;5056583;28;20031;-63
2022/06/21 06:31:08;;;;;;;35.70;33.85;;;;;;;;;;5056119;28;20029;-63
2022/06/21 06:33:38;;;;;;;23.80;22.52;;;;;;;;;;5057122;28;20056;-63
2022/06/21 06:36:08;;;;;;;39.42;37.40;;;;;;;;;;5054738;28;20083;-63
2022/06/21 06:38:34;;;;;;;38.38;36.40;;;;;;;;;;5055984;28;20028;-64
2022/06/21 06:41:06;;;;;;;39.03;37.03;;;;;;;;;;5056640;28;20033;-63
2022/06/21 06:43:42;;;;;;;24.58;23.25;;;;;;;;;;5055939;28;20454;-63
2022/06/21 06:46:17;;;;;;;26.27;24.88;;;;;;;;;;5056811;28;20074;-63
2022/06/21 06:48:44;;;;;;;31.95;30.17;;;;;;;;;;5054516;28;20102;-63
2022/06/21 06:51:16;;;;;;;26.52;24.92;;;;;;;;;;5055850;28;20120;-63
2022/06/21 06:53:50;;;;;;;24.88;23.55;;;;;;;;;;5056954;28;20468;-63
2022/06/21 06:56:19;;;;;;;23.77;22.48;;;;;;;;;;5056285;28;20040;-63
2022/06/21 06:59:13;;;;;;;20.05;18.95;;;;;;;;;;5054471;28;20544;-63
2022/06/21 07:01:58;;;;;;;27.77;26.27;;;;;;;;;;5045305;28;20037;-63
2022/06/21 07:04:28;;;;;;;29.98;28.40;;;;;;;;;;5053460;28;20036;-63
2022/06/21 07:06:59;;;;;;;19.30;18.20;;;;;;;;;;5056221;28;20115;-64
2022/06/21 07:09:44;;;;;;;11.98;11.27;;;;;;;;;;5053640;28;20318;-64
2022/06/21 07:12:19;;;;;;;22.90;21.67;;;;;;;;;;5056265;28;20050;-64
2022/06/21 07:14:47;;;;;;;14.88;14.05;;;;;;;;;;5059335;28;20116;-64
2022/06/21 07:17:27;;;;;;;22.77;21.55;;;;;;;;;;5053549;28;20040;-64
2022/06/21 07:19:53;;;;;;;20.48;19.33;;;;;;;;;;5056091;28;20047;-64
2022/06/21 07:22:27;;;;;;;28.40;26.90;;;;;;;;;;5055675;28;20123;-64
2022/06/21 07:25:04;;;;;;;22.52;21.25;;;;;;;;;;5054301;28;20024;-64
2022/06/21 07:27:34;;;;;;;24.35;23.05;;;;;;;;;;5057617;28;20539;-64
2022/06/21 07:30:04;;;;;;;16.90;15.90;;;;;;;;;;5056096;28;20092;-64
2022/06/21 07:32:38;;;;;;;27.30;25.80;;;;;;;;;;5056811;28;20357;-64
2022/06/21 07:35:26;;;;;;;19.38;18.27;;;;;;;;;;5056802;28;20329;-64
2022/06/21 07:37:56;;;;;;;19.48;18.40;;;;;;;;;;5054544;28;20033;-64
2022/06/21 07:40:30;;;;;;;14.00;13.20;;;;;;;;;;5052051;28;20036;-65
2022/06/21 07:43:26;;;;;;;15.23;14.32;;;;;;;;;;5056481;28;20032;-66
2022/06/21 07:45:55;;;;;;;22.23;21.02;;;;;;;;;;5052634;28;20036;-65
2022/06/21 07:48:37;;;;;;;16.02;15.13;;;;;;;;;;5052829;28;20041;-64
2022/06/21 07:51:07;;;;;;;11.52;10.82;;;;;;;;;;5055506;28;20028;-65
2022/06/21 07:53:43;;;;;;;14.48;13.65;;;;;;;;;;5055315;28;20534;-64
2022/06/21 07:56:31;;;;;;;12.23;11.48;;;;;;;;;;5056111;28;20040;-66
2022/06/21 07:59:05;;;;;;;13.43;12.63;;;;;;;;;;5057542;28;20039;-65
2022/06/21 08:07:30;;;;;;;8.32;7.63;;;;;;;;;;5054319;28;20052;-65
2022/06/21 08:10:18;;;;;;;13.90;13.10;;;;;;;;;;5055139;28;20491;-65
2022/06/21 08:12:43;;;;;;;8.00;7.47;;;;;;;;;;5053501;28;20068;-65
2022/06/21 08:15:09;;;;;;;9.70;9.10;;;;;;;;;;5051680;28;20513;-66
2022/06/21 08:17:56;;;;;;;7.03;6.53;;;;;;;;;;5054419;28;20041;-65
2022/06/21 08:20:27;;;;;;;8.05;7.45;;;;;;;;;;5055497;28;20052;-66
2022/06/21 08:22:57;;;;;;;;;;;;;;;;;;5058908;28;20055;-66
2022/06/21 08:25:35;;;;;;;8.70;8.13;;;;;;;;;;5059389;28;19908;-65
2022/06/21 08:28:19;;;;;;;8.23;7.72;;;;;;;;;;5060053;28;20044;-64
2022/06/21 08:31:00;;;;;;;11.40;10.70;;;;;;;;;;5059629;28;20033;-64
2022/06/21 08:33:37;;;;;;;14.63;13.63;;;;;;;;;;5057922;28;20079;-65
2022/06/21 08:36:08;;;;;;;22.55;21.30;;;;;;;;;;5059134;28;20083;-69
2022/06/21 08:38:40;;;;;;;23.00;21.77;;;;;;;;;;5059362;28;20043;-66
2022/06/21 08:41:51;;;;;;;18.42;17.42;;;;;;;;;;5060008;28;20416;-66
2022/06/21 08:44:32;;;;;;;18.20;17.20;;;;;;;;;;5058670;28;20087;-62
2022/06/21 08:47:16;;;;;;;;;;;;;;;;;;5033406;28;20044;-63
2022/06/21 08:50:12;;;;;;;39.03;37.00;;;;;;;;;;5058847;28;20622;-64
2022/06/21 08:53:05;;;;;;;56.97;54.10;;;;;;;;;;5056674;28;20029;-65
2022/06/21 08:55:43;;;;;;;48.72;46.28;;;;;;;;;;5057137;28;20036;-66
2022/06/21 08:58:22;;;;;;;42.58;40.40;;;;;;;;;;5053237;28;20040;-64
2022/06/21 09:01:12;;;;;;;47.70;45.28;;;;;;;;;;5052769;28;20029;-66
2022/06/21 09:03:50;;;;;;;26.90;25.48;;;;;;;;;;5057526;28;20063;-65
2022/06/21 09:06:27;;;;;;;41.40;39.28;;;;;;;;;;5056257;28;20046;-65
2022/06/21 09:09:16;;;;;;;33.72;32.00;;;;;;;;;;5058591;28;20033;-65
2022/06/21 09:12:16;;;;;;;37.53;35.60;;;;;;;;;;5055659;28;20072;-63
2022/06/21 09:15:00;;;;;;;50.78;48.22;;;;;;;;;;5059707;28;20462;-65
2022/06/21 09:17:34;;;;;;;49.35;46.75;;;;;;;;;;5057597;28;20032;-65
2022/06/21 09:20:35;;;;;;;47.58;45.17;;;;;;;;;;5055446;28;20633;-65
2022/06/21 09:23:32;;;;;;;45.13;42.83;;;;;;;;;;5058386;28;20032;-65
2022/06/21 09:26:01;;;;;;;52.78;50.08;;;;;;;;;;5059139;28;20108;-64
2022/06/21 09:28:37;;;;;;;43.47;41.22;;;;;;;;;;5057065;28;20035;-65
2022/06/21 09:31:47;;;;;;;67.03;63.65;;;;;;;;;;5057865;28;20033;-65
2022/06/21 09:34:32;;;;;;;39.13;37.13;;;;;;;;;;5034398;28;20040;-63
2022/06/21 09:37:07;;;;;;;51.83;49.17;;;;;;;;;;5059439;28;20055;-65
2022/06/21 09:39:42;;;;;;;49.67;47.17;;;;;;;;;;5055658;28;20040;-64
2022/06/21 09:42:22;;;;;;;47.15;44.75;;;;;;;;;;5071992;28;20033;-65
2022/06/21 09:44:47;;;;;;;48.67;46.20;;;;;;;;;;5065828;28;20032;-64
2022/06/21 09:47:39;;;;;;;33.00;31.30;;;;;;;;;;5056021;28;20090;-64
2022/06/21 09:50:28;;;;;;;34.53;32.75;;;;;;;;;;5056320;28;20086;-66
2022/06/21 09:53:16;;;;;;;34.08;32.30;;;;;;;;;;5057357;28;20036;-64
2022/06/21 09:55:56;;;;;;;36.45;34.58;;;;;;;;;;5057424;28;20056;-65
2022/06/21 09:58:46;;;;;;;26.98;25.58;;;;;;;;;;5053700;28;20048;-64
2022/06/21 10:01:18;;;;;;;32.08;30.35;;;;;;;;;;5053834;28;20083;-65
2022/06/21 10:04:00;;;;;;;41.10;38.95;;;;;;;;;;5057990;28;20515;-65
2022/06/21 10:06:30;;;;;;;37.38;35.45;;;;;;;;;;5056954;28;20052;-65
2022/06/21 10:09:26;;;;;;;33.72;31.98;;;;;;;;;;5056941;28;20104;-67
2022/06/21 10:12:13;;;;;;;48.22;45.78;;;;;;;;;;5056778;28;20052;-62
2022/06/21 10:15:13;;;;;;;36.72;34.75;;;;;;;;;;5058783;28;20120;-63
2022/06/21 10:17:57;;;;;;;20.30;19.20;;;;;;;;;;5032628;28;20047;-62
2022/06/21 10:21:00;;;;;;;15.98;15.07;;;;;;;;;;5054117;28;20102;-62
2022/06/21 10:23:46;;;;;;;19.83;18.73;;;;;;;;;;5054554;28;20466;-62
2022/06/21 10:26:45;;;;;;;16.58;15.68;;;;;;;;;;5056302;28;20044;-62
2022/06/21 10:29:26;;;;;;;41.50;39.40;;;;;;;;;;5056555;28;20039;-63
2022/06/21 10:32:41;;;;;;;63.47;60.30;;;;;;;;;;5057135;28;20041;-63
2022/06/21 10:35:19;;;;;;;43.38;41.17;;;;;;;;;;5018928;28;20032;-63
2022/06/21 10:37:44;;;;;;;42.45;40.30;;;;;;;;;;5056291;28;20129;-62
2022/06/21 10:40:22;;;;;;;43.92;41.72;;;;;;;;;;5056356;28;20113;-62
2022/06/21 10:43:06;;;;;;;44.28;42.03;;;;;;;;;;5056218;28;20478;-62
2022/06/21 10:45:41;;;;;;;51.33;48.70;;;;;;;;;;5055176;28;20037;-62
2022/06/21 10:48:26;;;;;;;45.15;42.85;;;;;;;;;;5058108;28;20053;-63
2022/06/21 10:51:06;;;;;;;40.67;38.58;;;;;;;;;;5057653;28;20025;-63
2022/06/21 10:54:16;;;;;;;50.90;48.22;;;;;;;;;;5051366;28;20053;-63
2022/06/21 10:57:09;;;;;;;37.30;35.38;;;;;;;;;;5055816;28;20048;-64
2022/06/21 11:02:50;;;;;;;43.03;40.83;;;;;;;;;;5054749;28;20929;-64
2022/06/21 11:05:43;;;;;;;45.67;43.28;;;;;;;;;;5055391;28;20455;-65
2022/06/21 11:08:33;;;;;;;46.35;43.95;;;;;;;;;;5057231;28;20053;-63
2022/06/21 11:11:36;;;;;;;49.65;47.17;;;;;;;;;;5054440;28;20033;-64
2022/06/21 11:14:13;;;;;;;56.45;53.63;;;;;;;;;;5055960;28;20042;-63
2022/06/21 11:16:56;;;;;;;70.35;66.82;;;;;;;;;;5052255;28;20039;-63
2022/06/21 11:19:43;;;;;;;53.55;50.80;;;;;;;;;;5055182;28;20059;-64
2022/06/21 11:22:18;;;;;;;46.80;44.40;;;;;;;;;;5055044;28;20064;-63
2022/06/21 11:25:05;;;;;;;68.70;65.25;;;;;;;;;;5056893;28;20055;-64
2022/06/21 11:27:39;;;;;;;83.63;79.45;;;;;;;;;;5057688;28;20056;-65
2022/06/21 11:30:27;;;;;;;54.17;51.45;;;;;;;;;;5054027;28;20383;-64
2022/06/21 11:33:07;;;;;;;79.85;75.88;;;;;;;;;;5056110;28;20036;-61
2022/06/21 11:35:52;;;;;;;129.77;123.35;;;;;;;;;;5055488;28;20031;-64
2022/06/21 11:38:35;;;;;;;196.93;187.23;;;;;;;;;;5063406;28;20601;-63
2022/06/21 11:42:04;;;;;;;170.65;162.00;;;;;;;;;;5056030;28;20029;-63
2022/06/21 11:44:45;;;;;;;162.98;154.77;;;;;;;;;;5040984;28;20041;-63
2022/06/21 11:47:19;;;;;;;225.32;214.10;;;;;;;;;;5010918;28;20053;-65
2022/06/21 11:49:50;;;;;;;228.00;216.90;;;;;;;;;;5056480;28;20033;-64
2022/06/21 11:52:28;;;;;;;189.95;180.63;;;;;;;;;;5056191;28;20060;-63
2022/06/21 11:55:15;;;;;;;210.98;200.63;;;;;;;;;;5054264;28;20063;-61
2022/06/21 11:57:52;;;;;;;184.95;175.85;;;;;;;;;;5053923;28;20120;-62
2022/06/21 12:00:40;;;;;;;199.73;189.95;;;;;;;;;;5052815;28;20112;-63
2022/06/21 12:03:14;;;;;;;181.98;173.05;;;;;;;;;;5053941;28;20029;-63
2022/06/21 12:06:00;;;;;;;177.25;168.52;;;;;;;;;;5055571;28;20024;-63
2022/06/21 12:08:42;;;;;;;178.60;169.80;;;;;;;;;;5055752;28;20111;-62
2022/06/21 12:11:25;;;;;;;154.75;147.13;;;;;;;;;;5056292;28;20075;-63
2022/06/21 12:14:02;;;;;;;170.25;161.85;;;;;;;;;;5055290;28;20128;-62
2022/06/21 12:16:35;;;;;;;147.60;140.25;;;;;;;;;;5054727;28;20044;-62
2022/06/21 12:19:12;;;;;;;155.45;147.80;;;;;;;;;;5055061;28;20040;-60
2022/06/21 12:21:45;;;;;;;173.10;164.57;;;;;;;;;;5054933;28;20036;-61
2022/06/21 12:24:17;;;;;;;166.70;158.52;;;;;;;;;;5055213;28;20025;-61
2022/06/21 12:26:44;;;;;;;146.77;139.50;;;;;;;;;;5054390;28;20043;-61
2022/06/21 12:29:15;;;;;;;188.02;178.82;;;;;;;;;;5054356;28;20071;-60
2022/06/21 12:31:48;;;;;;;172.30;163.82;;;;;;;;;;5072170;28;20029;-62
2022/06/21 12:34:25;;;;;;;180.43;171.63;;;;;;;;;;5056238;28;20103;-62
2022/06/21 12:36:59;;;;;;;184.68;175.63;;;;;;;;;;5055223;28;20090;-61
2022/06/21 12:39:36;;;;;;;160.85;152.90;;;;;;;;;;5054420;28;20059;-62
2022/06/21 12:42:13;;;;;;;203.00;193.15;;;;;;;;;;5062706;28;20032;-62
2022/06/21 12:45:00;;;;;;;97.38;92.60;;;;;;;;;;5054493;28;20040;-61
2022/06/21 12:47:51;;;;;;;86.68;82.45;;;;;;;;;;5054014;28;20065;-63
2022/06/21 12:50:29;;;;;;;107.85;102.35;;;;;;;;;;5054793;28;20016;-61
2022/06/21 12:53:25;;;;;;;125.65;119.53;;;;;;;;;;5052079;28;20040;-61
2022/06/21 12:56:28;;;;;;;156.82;149.13;;;;;;;;;;5053026;28;20568;-62
2022/06/21 12:59:27;;;;;;;117.45;111.63;;;;;;;;;;5052034;28;20076;-60
2022/06/21 13:02:19;;;;;;;112.07;106.55;;;;;;;;;;5053057;28;20044;-61
2022/06/21 13:05:02;;;;;;;121.00;115.00;;;;;;;;;;5054817;28;20046;-62
2022/06/21 13:07:48;;;;;;;138.43;131.60;;;;;;;;;;5061210;28;20074;-62
2022/06/21 13:10:35;;;;;;;108.80;103.45;;;;;;;;;;5059873;28;20083;-62
2022/06/21 13:13:22;;;;;;;112.82;107.32;;;;;;;;;;5061037;28;20041;-63
2022/06/21 13:15:56;;;;;;;99.72;94.82;;;;;;;;;;5057597;28;20630;-61
2022/06/21 13:18:39;;;;;;;98.95;94.10;;;;;;;;;;5056160;28;20040;-61
2022/06/21 13:21:11;;;;;;;115.78;110.13;;;;;;;;;;5057013;28;20040;-60
2022/06/21 13:24:11;;;;;;;127.38;121.10;;;;;;;;;;5059510;28;20033;-62
2022/06/21 13:27:06;;;;;;;112.40;106.88;;;;;;;;;;5058502;28;20378;-62
2022/06/21 13:29:48;;;;;;;125.43;119.30;;;;;;;;;;5055655;28;20064;-61
2022/06/21 13:32:23;;;;;;;118.45;112.63;;;;;;;;;;5054475;28;20037;-61
2022/06/21 13:34:56;;;;;;;119.65;113.80;;;;;;;;;;5055788;28;20037;-63
2022/06/21 13:37:39;;;;;;;105.75;100.57;;;;;;;;;;5056292;28;20024;-63
2022/06/21 13:40:25;;;;;;;118.53;112.72;;;;;;;;;;5059978;28;20120;-63
2022/06/21 13:42:57;;;;;;;96.32;91.63;;;;;;;;;;5062470;28;20073;-61
2022/06/21 13:45:35;;;;;;;110.15;104.75;;;;;;;;;;5060591;28;20749;-62
2022/06/21 13:48:31;;;;;;;106.65;101.45;;;;;;;;;;5058998;28;20601;-61
2022/06/21 13:51:04;;;;;;;96.70;91.95;;;;;;;;;;5056529;28;20482;-61
2022/06/21 13:53:50;;;;;;;112.10;106.60;;;;;;;;;;5056978;28;20191;-61
2022/06/21 13:56:30;;;;;;;80.80;76.80;;;;;;;;;;5058660;28;20048;-61
2022/06/21 13:59:07;;;;;;;113.28;107.72;;;;;;;;;;5059274;28;20047;-61
2022/06/21 14:01:59;;;;;;;98.82;93.95;;;;;;;;;;5056608;28;20359;-61
2022/06/21 14:04:42;;;;;;;80.50;76.38;;;;;;;;;;5060092;28;20557;-61
2022/06/21 14:07:18;;;;;;;86.22;81.97;;;;;;;;;;5053421;28;20498;-62
2022/06/21 14:09:54;;;;;;;93.65;89.05;;;;;;;;;;5057629;28;20044;-62
2022/06/21 14:12:58;;;;;;;87.55;83.28;;;;;;;;;;5056220;28;20033;-61
2022/06/21 14:15:34;;;;;;;83.00;78.90;;;;;;;;;;5028279;28;20048;-61
2022/06/21 14:18:16;;;;;;;111.63;106.13;;;;;;;;;;5057951;28;20520;-61
2022/06/21 14:21:07;;;;;;;82.90;78.80;;;;;;;;;;5072616;28;20428;-61
2022/06/21 14:23:35;;;;;;;74.07;70.32;;;;;;;;;;5055488;28;20044;-61
2022/06/21 14:26:00;;;;;;;73.22;69.63;;;;;;;;;;5058896;28;20520;-61
2022/06/21 14:28:44;;;;;;;67.88;64.47;;;;;;;;;;5054643;28;20036;-61
2022/06/21 14:31:27;;;;;;;72.63;69.03;;;;;;;;;;5057524;28;20028;-62
2022/06/21 14:33:58;;;;;;;69.30;65.88;;;;;;;;;;5056681;28;20029;-62
2022/06/21 14:36:40;;;;;;;75.05;71.35;;;;;;;;;;5055704;28;20707;-61
2022/06/21 14:39:28;;;;;;;78.18;74.30;;;;;;;;;;5058547;28;20040;-61
2022/06/21 14:42:04;;;;;;;73.43;69.72;;;;;;;;;;5056745;28;20056;-62
2022/06/21 14:44:40;;;;;;;75.93;72.15;;;;;;;;;;5056649;28;20033;-62
2022/06/21 14:47:30;;;;;;;66.68;63.35;;;;;;;;;;5056676;28;20617;-62
2022/06/21 14:50:00;;;;;;;86.90;82.55;;;;;;;;;;5054983;28;20044;-61
2022/06/21 14:52:25;;;;;;;;;;;;;;;;;;5055735;28;20044;-61
2022/06/21 14:54:50;;;;;;;66.45;63.15;;;;;;;;;;5056870;28;19912;-62
2022/06/21 14:57:19;;;;;;;68.72;65.32;;;;;;;;;;5058916;28;20017;-61
2022/06/21 15:00:04;;;;;;;66.32;63.03;;;;;;;;;;5059242;28;20895;-64
2022/06/21 15:02:46;;;;;;;60.90;57.83;;;;;;;;;;5055417;28;20067;-61
2022/06/21 15:05:31;;;;;;;58.08;55.17;;;;;;;;;;5057789;28;20486;-61
2022/06/21 15:08:14;;;;;;;66.38;62.97;;;;;;;;;;5053456;28;20542;-61
2022/06/21 15:10:45;;;;;;;67.65;64.25;;;;;;;;;;5057775;28;20620;-62
2022/06/21 15:13:19;;;;;;;61.95;58.85;;;;;;;;;;5057496;28;20028;-61
2022/06/21 15:15:48;;;;;;;79.65;75.72;;;;;;;;;;5057288;28;20056;-61
2022/06/21 15:18:26;;;;;;;63.75;60.55;;;;;;;;;;5059395;28;20162;-62
2022/06/21 15:21:12;;;;;;;64.47;61.17;;;;;;;;;;5053910;28;20506;-61
2022/06/21 15:23:40;;;;;;;79.32;75.40;;;;;;;;;;5057717;28;20037;-61
2022/06/21 15:26:48;;;;;;;75.80;72.05;;;;;;;;;;5059780;28;20101;-61
2022/06/21 15:29:26;;;;;;;85.95;81.70;;;;;;;;;;5056669;28;20079;-62
2022/06/21 15:32:01;;;;;;;84.53;80.32;;;;;;;;;;5055236;28;20056;-61